Time;durP1;ratioP1;P1;durP2;ratioP2;P2;SDS_P1;SDS_P2;PMS_P1;PMS_P2;Temp;Humidity;BMP_temperature;BMP_pressure;BME280_temperature;BME280_humidity;BME280_pressure;Samples;Min_cycle;Max_cycle;Signal;HPM_P1;HPM_P2
2024/02/14 00:00:31;;;;;;;53.00;36.10;;;;;19.70;100412.00;;;;2070319;28;20327;-55
2024/02/14 00:01:32;;;;;;;51.77;34.50;;;;;19.70;100412.00;;;;2077899;28;20272;-55
2024/02/14 00:02:33;;;;;;;52.20;35.00;;;;;19.70;100411.00;;;;2064027;28;20211;-55
2024/02/14 00:03:33;;;;;;;50.63;35.33;;;;;19.70;100417.00;;;;2069677;28;20746;-55
2024/02/14 00:04:34;;;;;;;48.10;34.07;;;;;19.70;100408.00;;;;2061089;28;20241;-58
2024/02/14 00:05:34;;;;;;;47.73;32.80;;;;;19.70;100409.00;;;;2069676;28;20284;-56
2024/02/14 00:06:36;;;;;;;51.07;34.10;;;;;19.70;100406.00;;;;2070003;28;20248;-54
2024/02/14 00:07:37;;;;;;;50.13;33.22;;;;;19.70;100407.00;;;;2066599;28;20258;-57
2024/02/14 00:08:37;;;;;;;49.80;33.05;;;;;19.70;100403.00;;;;2070816;28;20218;-60
2024/02/14 00:09:38;;;;;;;47.03;33.93;;;;;19.70;100405.00;;;;2064780;28;20214;-58
2024/02/14 00:10:38;;;;;;;45.33;32.40;;;;;19.70;100398.00;;;;2070268;28;20222;-59
2024/02/14 00:11:38;;;;;;;45.00;31.63;;;;;19.70;100406.00;;;;2070590;28;20242;-57
2024/02/14 00:12:39;;;;;;;46.87;32.40;;;;;19.70;100407.00;;;;2068985;28;20216;-54
2024/02/14 00:13:39;;;;;;;45.67;30.70;;;;;19.70;100398.00;;;;2069936;28;20221;-57
2024/02/14 00:14:40;;;;;;;43.13;30.83;;;;;19.70;100412.00;;;;2059317;28;20206;-58
2024/02/14 00:15:40;;;;;;;45.60;31.70;;;;;19.70;100396.00;;;;2070115;28;20214;-59
2024/02/14 00:16:41;;;;;;;46.83;32.00;;;;;19.70;100386.00;;;;2063589;28;20233;-58
2024/02/14 00:17:43;;;;;;;45.70;31.77;;;;;19.70;100383.00;;;;2062365;28;20223;-57
2024/02/14 00:18:43;;;;;;;45.17;30.65;;;;;19.70;100394.00;;;;2070061;28;20763;-55
2024/02/14 00:19:43;;;;;;;43.57;30.43;;;;;19.60;100389.00;;;;2060074;28;20218;-55
2024/02/14 00:20:44;;;;;;;44.03;30.33;;;;;19.60;100389.00;;;;2063656;28;20309;-55
2024/02/14 00:21:44;;;;;;;41.57;31.40;;;;;19.70;100394.00;;;;2068011;28;20736;-58
2024/02/14 00:22:44;;;;;;;46.50;31.93;;;;;19.60;100395.00;;;;2069742;28;20651;-58
2024/02/14 00:23:45;;;;;;;46.90;31.70;;;;;19.60;100390.00;;;;2068867;28;20297;-54
2024/02/14 00:24:45;;;;;;;43.43;30.93;;;;;19.60;100430.00;;;;2059964;28;20210;-59
2024/02/14 00:25:45;;;;;;;44.60;30.37;;;;;19.60;100397.00;;;;2069642;28;20935;-55
2024/02/14 00:26:46;;;;;;;41.50;30.10;;;;;19.60;100398.00;;;;2065132;28;20229;-54
2024/02/14 00:27:46;;;;;;;42.00;30.00;;;;;19.60;100393.00;;;;2069449;28;20229;-58
2024/02/14 00:28:46;;;;;;;43.03;28.83;;;;;19.60;100393.00;;;;2069356;28;21272;-56
2024/02/14 00:29:48;;;;;;;40.50;27.83;;;;;19.60;100388.00;;;;2061986;28;20843;-58
2024/02/14 00:30:48;;;;;;;43.40;28.55;;;;;19.60;100383.00;;;;2075963;28;20232;-55
2024/02/14 00:31:48;;;;;;;41.77;28.90;;;;;19.60;100387.00;;;;2068325;28;20214;-59
2024/02/14 00:32:50;;;;;;;37.53;28.43;;;;;19.60;100383.00;;;;2069935;28;20262;-56
2024/02/14 00:33:50;;;;;;;43.00;28.75;;;;;19.60;100382.00;;;;2070926;28;20713;-56
2024/02/14 00:34:51;;;;;;;40.47;27.53;;;;;19.60;100386.00;;;;2066184;28;20222;-57
2024/02/14 00:35:51;;;;;;;39.20;28.00;;;;;19.60;100388.00;;;;2068991;28;20269;-57
2024/02/14 00:36:52;;;;;;;42.33;28.00;;;;;19.60;100386.00;;;;2068595;28;20224;-57
2024/02/14 00:37:52;;;;;;;39.13;26.57;;;;;19.60;100406.00;;;;2067754;28;21018;-54
2024/02/14 00:38:52;;;;;;;39.40;27.43;;;;;19.60;100390.00;;;;2067695;28;20709;-56
2024/02/14 00:39:53;;;;;;;37.13;25.87;;;;;19.60;100392.00;;;;2057509;28;20241;-58
2024/02/14 00:40:54;;;;;;;35.05;25.10;;;;;19.60;100389.00;;;;2064595;28;20218;-57
2024/02/14 00:41:55;;;;;;;35.07;26.07;;;;;19.60;100389.00;;;;2069859;28;20218;-58
2024/02/14 00:42:56;;;;;;;41.25;26.55;;;;;19.60;100391.00;;;;2067636;28;20244;-57
2024/02/14 00:43:57;;;;;;;36.60;25.65;;;;;19.60;100392.00;;;;2067209;28;20279;-58
2024/02/14 00:44:57;;;;;;;36.47;25.70;;;;;19.60;100390.00;;;;2067849;28;20221;-58
2024/02/14 00:45:58;;;;;;;35.63;25.10;;;;;19.60;100393.00;;;;2068486;28;20217;-58
2024/02/14 00:46:59;;;;;;;37.23;25.23;;;;;19.60;100395.00;;;;2068449;28;20221;-59
2024/02/14 00:47:59;;;;;;;33.00;24.50;;;;;19.60;100392.00;;;;2068943;28;20232;-58
2024/02/14 00:49:00;;;;;;;35.30;25.40;;;;;19.60;100395.00;;;;2073381;28;21203;-58
2024/02/14 00:50:01;;;;;;;33.67;25.50;;;;;19.60;100392.00;;;;2062774;28;20610;-58
2024/02/14 00:51:02;;;;;;;35.67;25.10;;;;;19.60;100390.00;;;;2073416;28;20213;-58
2024/02/14 00:52:02;;;;;;;34.07;23.70;;;;;19.50;100383.00;;;;2074541;28;20588;-56
2024/02/14 00:53:03;;;;;;;33.30;22.87;;;;;19.50;100381.00;;;;2068887;28;20218;-57
2024/02/14 00:54:03;;;;;;;31.97;23.20;;;;;19.50;100387.00;;;;2069411;28;20708;-55
2024/02/14 00:55:04;;;;;;;30.27;21.97;;;;;19.50;100385.00;;;;2059496;28;20241;-56
2024/02/14 00:56:05;;;;;;;32.83;22.70;;;;;19.50;100382.00;;;;2069725;28;20222;-58
2024/02/14 00:57:05;;;;;;;32.95;22.83;;;;;19.00;100384.00;;;;2067870;28;20921;-58
2024/02/14 00:58:06;;;;;;;30.80;22.97;;;;;19.50;100380.00;;;;2069586;28;20230;-58
2024/02/14 00:59:07;;;;;;;29.67;22.20;;;;;19.50;100393.00;;;;2069746;28;20233;-57
2024/02/14 01:00:08;;;;;;;30.05;22.38;;;;;19.50;100378.00;;;;2055342;28;20219;-56
2024/02/14 01:01:09;;;;;;;32.72;22.40;;;;;19.50;100379.00;;;;2065509;28;20377;-59
2024/02/14 01:02:09;;;;;;;32.87;22.83;;;;;19.50;100381.00;;;;2069000;28;20679;-58
2024/02/14 01:03:12;;;;;;;32.87;21.67;;;;;19.50;100379.00;;;;2069616;28;20241;-55
2024/02/14 01:04:13;;;;;;;32.47;21.83;;;;;19.50;100378.00;;;;2068930;28;20261;-58
2024/02/14 01:05:13;;;;;;;30.40;21.60;;;;;19.50;100375.00;;;;2059808;28;20219;-57
2024/02/14 01:06:15;;;;;;;32.00;22.20;;;;;19.50;100373.00;;;;2069857;28;20220;-55
2024/02/14 01:07:15;;;;;;;30.83;22.80;;;;;19.50;100370.00;;;;2067687;28;20657;-58
2024/02/14 01:08:17;;;;;;;32.43;20.97;;;;;19.50;100385.00;;;;2069563;28;20210;-58
2024/02/14 01:09:18;;;;;;;30.55;21.63;;;;;19.50;100369.00;;;;2068558;28;20617;-58
2024/02/14 01:10:18;;;;;;;27.83;21.67;;;;;19.50;100371.00;;;;2060252;28;20752;-59
2024/02/14 01:11:19;;;;;;;28.53;21.40;;;;;19.50;100367.00;;;;2069219;28;20300;-57
2024/02/14 01:12:19;;;;;;;26.77;20.23;;;;;19.50;100377.00;;;;2069785;28;20245;-57
2024/02/14 01:13:19;;;;;;;32.40;21.37;;;;;19.50;100361.00;;;;2075061;28;20209;-56
2024/02/14 01:14:21;;;;;;;29.50;21.37;;;;;19.50;100370.00;;;;2068830;28;20296;-58
2024/02/14 01:15:22;;;;;;;28.20;19.73;;;;;19.50;100370.00;;;;2059949;28;20805;-58
2024/02/14 01:16:24;;;;;;;29.20;19.97;;;;;19.50;100372.00;;;;2068798;28;20276;-55
2024/02/14 01:17:24;;;;;;;31.35;21.58;;;;;19.50;100369.00;;;;2068198;28;20307;-55
2024/02/14 01:18:25;;;;;;;25.77;19.87;;;;;19.50;100369.00;;;;2064464;28;20254;-58
2024/02/14 01:19:28;;;;;;;29.70;20.23;;;;;19.50;100369.00;;;;2069678;28;20229;-57
2024/02/14 01:20:28;;;;;;;24.73;18.05;;;;;19.50;100365.00;;;;2060090;28;20253;-56
2024/02/14 01:21:29;;;;;;;30.03;19.63;;;;;19.40;100362.00;;;;2069246;28;20694;-57
2024/02/14 01:22:29;;;;;;;28.73;19.57;;;;;19.50;100360.00;;;;2069629;28;20682;-57
2024/02/14 01:23:29;;;;;;;25.77;17.80;;;;;19.50;100376.00;;;;2068619;28;20963;-55
2024/02/14 01:24:30;;;;;;;29.63;18.47;;;;;19.40;100363.00;;;;2069049;28;20887;-58
2024/02/14 01:25:30;;;;;;;27.20;18.90;;;;;19.50;100356.00;;;;2059215;28;20922;-55
2024/02/14 01:26:32;;;;;;;27.53;19.20;;;;;19.50;100364.00;;;;2068715;28;20233;-54
2024/02/14 01:27:32;;;;;;;23.83;17.77;;;;;19.50;100352.00;;;;2068310;28;20725;-58
2024/02/14 01:28:33;;;;;;;27.60;18.37;;;;;19.40;100352.00;;;;2068802;28;20225;-58
2024/02/14 01:29:33;;;;;;;25.80;17.60;;;;;19.40;100370.00;;;;2067118;28;20237;-58
2024/02/14 01:30:35;;;;;;;23.13;17.33;;;;;19.40;100346.00;;;;2069906;28;20961;-58
2024/02/14 01:31:36;;;;;;;26.42;16.95;;;;;19.40;100350.00;;;;2069646;28;20280;-58
2024/02/14 01:32:37;;;;;;;25.37;18.13;;;;;19.40;100343.00;;;;2069326;28;20221;-59
2024/02/14 01:33:37;;;;;;;25.42;17.70;;;;;19.40;100358.00;;;;2068813;28;20288;-55
2024/02/14 01:34:38;;;;;;;25.77;18.20;;;;;19.40;100355.00;;;;2059328;28;20244;-58
2024/02/14 01:35:38;;;;;;;24.50;17.70;;;;;19.40;100341.00;;;;2067730;28;20930;-59
2024/02/14 01:36:41;;;;;;;24.20;17.20;;;;;19.40;100350.00;;;;2068077;28;20253;-57
2024/02/14 01:37:43;;;;;;;25.65;17.83;;;;;19.40;100375.00;;;;2074012;28;20229;-56
2024/02/14 01:38:45;;;;;;;24.27;17.80;;;;;19.40;100336.00;;;;2069248;28;20218;-58
2024/02/14 01:39:45;;;;;;;23.58;17.13;;;;;19.40;100342.00;;;;2061400;28;20792;-59
2024/02/14 01:40:46;;;;;;;24.10;17.80;;;;;19.40;100353.00;;;;2077187;28;20240;-55
2024/02/14 01:41:50;;;;;;;24.05;16.88;;;;;19.40;100347.00;;;;2075800;28;20588;-58
2024/02/14 01:42:52;;;;;;;24.92;17.02;;;;;19.40;100348.00;;;;2072887;28;20226;-56
2024/02/14 01:43:52;;;;;;;25.35;17.10;;;;;19.40;100340.00;;;;2069495;28;20210;-55
2024/02/14 01:44:54;;;;;;;21.53;14.70;;;;;19.40;100345.00;;;;2059215;28;20557;-58
2024/02/14 01:45:55;;;;;;;22.83;16.05;;;;;19.40;100335.00;;;;2069192;28;20233;-58
2024/02/14 01:46:56;;;;;;;24.15;16.27;;;;;19.30;100337.00;;;;2068093;28;20221;-56
2024/02/14 01:47:56;;;;;;;20.17;15.20;;;;;19.40;100335.00;;;;2068393;28;20218;-57
2024/02/14 01:48:56;;;;;;;21.53;15.93;;;;;19.40;100326.00;;;;2069529;28;20223;-58
2024/02/14 01:49:57;;;;;;;22.10;15.13;;;;;19.40;100335.00;;;;2057881;28;20226;-59
2024/02/14 01:50:58;;;;;;;23.57;15.50;;;;;19.40;100342.00;;;;2068795;28;20210;-58
2024/02/14 01:52:01;;;;;;;23.77;16.65;;;;;19.40;100339.00;;;;2069726;28;20222;-54
2024/02/14 01:53:01;;;;;;;23.27;15.43;;;;;19.40;100340.00;;;;2068638;28;20218;-58
2024/02/14 01:54:02;;;;;;;21.17;14.63;;;;;19.10;100338.00;;;;2076253;28;20221;-59
2024/02/14 01:55:04;;;;;;;19.70;14.30;;;;;19.40;100335.00;;;;2058881;28;20225;-57
2024/02/14 01:56:05;;;;;;;20.67;15.07;;;;;19.30;100336.00;;;;2069269;28;20303;-56
2024/02/14 01:57:06;;;;;;;21.92;14.68;;;;;19.30;100322.00;;;;2067390;28;20226;-59
2024/02/14 01:58:06;;;;;;;23.13;15.23;;;;;19.40;100332.00;;;;2069379;28;20694;-59
2024/02/14 01:59:06;;;;;;;21.57;15.30;;;;;19.30;100335.00;;;;2068194;28;20214;-54
2024/02/14 02:00:17;;;;;;;18.77;13.57;;;;;19.30;100339.00;;;;2058566;28;20218;-58
2024/02/14 02:01:18;;;;;;;21.80;14.45;;;;;19.30;100335.00;;;;2063774;28;20781;-58
2024/02/14 02:02:19;;;;;;;21.97;15.80;;;;;19.30;100336.00;;;;2066998;28;20206;-58
2024/02/14 02:03:19;;;;;;;20.75;13.93;;;;;19.30;100324.00;;;;2069100;28;20585;-56
2024/02/14 02:04:20;;;;;;;21.97;14.53;;;;;19.30;100319.00;;;;2065476;28;20233;-56
2024/02/14 02:05:21;;;;;;;22.03;14.27;;;;;19.30;100326.00;;;;2056474;28;20257;-55
2024/02/14 02:06:21;;;;;;;18.87;14.63;;;;;19.30;100339.00;;;;2067417;28;20985;-58
2024/02/14 02:07:22;;;;;;;19.33;13.10;;;;;19.30;100333.00;;;;2064701;28;20748;-58
2024/02/14 02:08:22;;;;;;;18.57;13.10;;;;;19.30;100331.00;;;;2068995;28;20210;-58
2024/02/14 02:09:23;;;;;;;21.20;14.03;;;;;19.30;100335.00;;;;2067576;28;20214;-57
2024/02/14 02:10:25;;;;;;;19.80;14.17;;;;;19.30;100337.00;;;;2059522;28;20224;-55
2024/02/14 02:11:26;;;;;;;16.02;12.32;;;;;19.30;100339.00;;;;2066177;28;20214;-58
2024/02/14 02:12:27;;;;;;;19.40;14.10;;;;;19.30;100333.00;;;;2068890;28;20709;-57
2024/02/14 02:13:27;;;;;;;21.73;14.40;;;;;19.30;100339.00;;;;2064551;28;20239;-54
2024/02/14 02:14:28;;;;;;;19.47;14.40;;;;;19.30;100341.00;;;;2068883;28;20461;-56
2024/02/14 02:15:29;;;;;;;18.27;12.63;;;;;19.30;100342.00;;;;2059409;28;20234;-58
2024/02/14 02:16:29;;;;;;;19.60;13.87;;;;;19.30;100342.00;;;;2068277;28;22200;-54
2024/02/14 02:17:30;;;;;;;17.33;12.30;;;;;19.30;100337.00;;;;2068003;28;20465;-56
2024/02/14 02:18:31;;;;;;;18.63;12.73;;;;;19.30;100339.00;;;;2068678;28;20230;-59
2024/02/14 02:19:32;;;;;;;17.30;12.02;;;;;19.30;100342.00;;;;2065546;28;20316;-60
2024/02/14 02:20:33;;;;;;;17.75;12.10;;;;;19.30;100339.00;;;;2076539;28;20265;-58
2024/02/14 02:21:34;;;;;;;17.60;12.30;;;;;19.30;100340.00;;;;2075760;28;20232;-58
2024/02/14 02:22:37;;;;;;;19.63;12.43;;;;;19.30;100335.00;;;;2068835;28;20321;-58
2024/02/14 02:23:38;;;;;;;16.95;12.43;;;;;19.30;100342.00;;;;2068274;28;20218;-55
2024/02/14 02:24:38;;;;;;;15.30;11.00;;;;;19.30;100359.00;;;;2058983;28;20737;-56
2024/02/14 02:25:38;;;;;;;16.87;11.90;;;;;19.30;100339.00;;;;2065676;28;21199;-58
2024/02/14 02:26:39;;;;;;;17.17;12.83;;;;;19.30;100341.00;;;;2066867;28;20702;-57
2024/02/14 02:27:39;;;;;;;16.17;11.73;;;;;19.30;100334.00;;;;2061826;28;21109;-54
2024/02/14 02:28:40;;;;;;;17.67;12.77;;;;;19.30;100324.00;;;;2075356;28;20217;-57
2024/02/14 02:29:40;;;;;;;18.63;13.40;;;;;19.30;100346.00;;;;2059121;28;20224;-58
2024/02/14 02:30:41;;;;;;;14.60;11.37;;;;;19.20;100339.00;;;;2068116;28;21034;-58
2024/02/14 02:31:41;;;;;;;15.20;11.70;;;;;19.30;100334.00;;;;2069084;28;20694;-59
2024/02/14 02:32:42;;;;;;;18.07;12.10;;;;;19.30;100335.00;;;;2067053;28;20268;-59
2024/02/14 02:33:43;;;;;;;21.60;13.15;;;;;19.30;100335.00;;;;2069042;28;20713;-57
2024/02/14 02:34:45;;;;;;;14.60;11.40;;;;;19.20;100340.00;;;;2059038;28;20226;-59
2024/02/14 02:35:45;;;;;;;15.30;11.50;;;;;19.20;100333.00;;;;2061516;28;20222;-57
2024/02/14 02:36:46;;;;;;;16.63;12.20;;;;;19.20;100339.00;;;;2066838;28;20253;-58
2024/02/14 02:37:47;;;;;;;16.10;11.53;;;;;19.20;100330.00;;;;2067533;28;20244;-54
2024/02/14 02:38:48;;;;;;;16.90;11.25;;;;;19.20;100342.00;;;;2060200;28;20301;-58
2024/02/14 02:39:49;;;;;;;15.43;11.53;;;;;19.00;100341.00;;;;2057903;28;20214;-56
2024/02/14 02:40:49;;;;;;;16.40;11.67;;;;;19.20;100348.00;;;;2068809;28;20457;-55
2024/02/14 02:41:49;;;;;;;13.90;10.47;;;;;19.30;100334.00;;;;2061252;28;20245;-55
2024/02/14 02:42:50;;;;;;;15.63;11.27;;;;;19.30;100342.00;;;;2068522;28;20219;-56
2024/02/14 02:43:51;;;;;;;15.77;10.83;;;;;19.30;100340.00;;;;2069098;28;20214;-54
2024/02/14 02:44:51;;;;;;;17.67;11.03;;;;;19.20;100344.00;;;;2058446;28;20215;-56
2024/02/14 02:45:51;;;;;;;15.53;10.53;;;;;19.20;100330.00;;;;2068610;28;20688;-56
2024/02/14 02:46:52;;;;;;;16.30;11.00;;;;;19.20;100343.00;;;;2066944;28;20210;-58
2024/02/14 02:47:52;;;;;;;15.57;10.63;;;;;19.20;100335.00;;;;2069383;28;20308;-55
2024/02/14 02:48:54;;;;;;;13.33;9.50;;;;;19.20;100338.00;;;;2077223;28;20210;-59
2024/02/14 02:49:56;;;;;;;17.10;9.93;;;;;19.20;100372.00;;;;2058232;28;20218;-58
2024/02/14 02:50:57;;;;;;;12.43;8.68;;;;;19.20;100339.00;;;;2061936;28;20239;-55
2024/02/14 02:51:57;;;;;;;15.33;11.30;;;;;19.20;100337.00;;;;2068354;28;20214;-55
2024/02/14 02:52:57;;;;;;;14.53;10.80;;;;;19.20;100341.00;;;;2070453;28;20207;-55
2024/02/14 02:53:58;;;;;;;13.97;10.20;;;;;19.20;100339.00;;;;2075668;28;20217;-56
2024/02/14 02:54:58;;;;;;;15.67;11.07;;;;;19.20;100338.00;;;;2058522;28;20269;-58
2024/02/14 02:55:59;;;;;;;14.13;9.77;;;;;19.20;100345.00;;;;2068827;28;20222;-58
2024/02/14 02:57:03;;;;;;;14.13;10.40;;;;;19.20;100343.00;;;;2067466;28;20221;-55
2024/02/14 02:58:03;;;;;;;15.35;10.15;;;;;19.20;100343.00;;;;2069099;28;20908;-58
2024/02/14 02:59:04;;;;;;;15.10;9.47;;;;;19.20;100335.00;;;;2068242;28;20222;-57
2024/02/14 03:00:12;;;;;;;13.50;9.70;;;;;19.20;100333.00;;;;2059335;28;20907;-57
2024/02/14 03:01:13;;;;;;;14.10;9.82;;;;;19.20;100341.00;;;;2067994;28;20217;-55
2024/02/14 03:02:14;;;;;;;13.10;9.73;;;;;19.20;100355.00;;;;2062824;28;20206;-57
2024/02/14 03:03:14;;;;;;;14.83;10.10;;;;;19.10;100332.00;;;;2065364;28;20253;-57
2024/02/14 03:04:14;;;;;;;14.13;9.57;;;;;19.20;100324.00;;;;2067517;28;20480;-58
2024/02/14 03:05:18;;;;;;;13.83;9.13;;;;;19.20;100324.00;;;;2058984;28;20221;-58
2024/02/14 03:06:18;;;;;;;13.82;9.25;;;;;19.10;100322.00;;;;2068047;28;20224;-55
2024/02/14 03:07:20;;;;;;;14.03;9.53;;;;;19.10;100326.00;;;;2067612;28;20577;-56
2024/02/14 03:08:21;;;;;;;13.50;9.48;;;;;19.20;100330.00;;;;2065946;28;20218;-55
2024/02/14 03:09:22;;;;;;;15.32;9.70;;;;;19.10;100326.00;;;;2068807;28;20217;-58
2024/02/14 03:10:22;;;;;;;14.03;9.40;;;;;19.10;100333.00;;;;2058278;28;20214;-55
2024/02/14 03:11:22;;;;;;;11.90;9.40;;;;;19.10;100324.00;;;;2067552;28;20257;-57
2024/02/14 03:12:23;;;;;;;13.27;9.60;;;;;19.20;100330.00;;;;2064504;28;20213;-58
2024/02/14 03:13:24;;;;;;;12.20;9.10;;;;;19.20;100334.00;;;;2064050;28;20210;-59
2024/02/14 03:14:24;;;;;;;13.10;9.30;;;;;19.10;100333.00;;;;2068864;28;20241;-54
2024/02/14 03:15:26;;;;;;;12.33;8.20;;;;;19.10;100323.00;;;;2064441;28;20480;-54
2024/02/14 03:16:26;;;;;;;11.90;7.75;;;;;19.10;100341.00;;;;2073142;28;20216;-58
2024/02/14 03:17:28;;;;;;;11.20;8.87;;;;;19.10;100336.00;;;;2068193;28;20746;-57
2024/02/14 03:18:29;;;;;;;11.55;8.32;;;;;19.10;100319.00;;;;2073406;28;20572;-56
2024/02/14 03:19:30;;;;;;;13.43;8.53;;;;;19.10;100318.00;;;;2071535;28;20210;-57
2024/02/14 03:20:30;;;;;;;13.20;9.43;;;;;18.40;100322.00;;;;2058439;28;20257;-57
2024/02/14 03:21:32;;;;;;;13.20;8.80;;;;;19.10;100330.00;;;;2068654;28;20473;-58
2024/02/14 03:22:33;;;;;;;12.55;8.50;;;;;19.10;100322.00;;;;2068158;28;20218;-54
2024/02/14 03:23:33;;;;;;;11.50;8.53;;;;;19.10;100314.00;;;;2068776;28;20245;-56
2024/02/14 03:24:35;;;;;;;13.20;9.23;;;;;19.10;100319.00;;;;2058817;28;20226;-57
2024/02/14 03:25:38;;;;;;;12.15;8.60;;;;;19.10;100324.00;;;;2067928;28;20254;-57
2024/02/14 03:26:39;;;;;;;11.90;8.85;;;;;19.10;100333.00;;;;2067508;28;20242;-58
2024/02/14 03:27:39;;;;;;;12.67;8.43;;;;;19.10;100334.00;;;;2068043;28;20264;-56
2024/02/14 03:28:40;;;;;;;12.57;8.60;;;;;19.10;100312.00;;;;2067850;28;20309;-60
2024/02/14 03:29:40;;;;;;;10.20;7.90;;;;;19.10;100315.00;;;;2063266;28;21034;-58
2024/02/14 03:30:41;;;;;;;11.37;8.10;;;;;19.10;100326.00;;;;2062201;28;20652;-57
2024/02/14 03:31:43;;;;;;;10.27;7.70;;;;;19.10;100324.00;;;;2067617;28;20304;-55
2024/02/14 03:32:43;;;;;;;11.75;8.07;;;;;19.10;100326.00;;;;2067752;28;20240;-55
2024/02/14 03:33:44;;;;;;;10.77;7.90;;;;;19.10;100314.00;;;;2068807;28;20230;-58
2024/02/14 03:34:44;;;;;;;10.83;8.10;;;;;19.10;100326.00;;;;2055425;28;20695;-57
2024/02/14 03:35:45;;;;;;;10.57;7.13;;;;;19.10;100337.00;;;;2067745;28;20929;-58
2024/02/14 03:36:45;;;;;;;11.73;8.07;;;;;19.10;100335.00;;;;2060424;28;20223;-58
2024/02/14 03:37:48;;;;;;;11.10;7.83;;;;;19.10;100325.00;;;;2068179;28;20218;-55
2024/02/14 03:38:48;;;;;;;11.77;7.97;;;;;19.10;100335.00;;;;2061140;28;20219;-57
2024/02/14 03:39:49;;;;;;;11.40;7.30;;;;;19.10;100323.00;;;;2057502;28;20217;-55
2024/02/14 03:40:49;;;;;;;11.23;7.67;;;;;19.10;100326.00;;;;2068936;28;20218;-57
2024/02/14 03:41:49;;;;;;;9.40;7.33;;;;;19.10;100333.00;;;;2063384;28;20298;-58
2024/02/14 03:42:50;;;;;;;10.90;7.70;;;;;19.10;100336.00;;;;2068575;28;20222;-54
2024/02/14 03:43:52;;;;;;;11.03;7.77;;;;;19.10;100334.00;;;;2061177;28;20226;-57
2024/02/14 03:44:55;;;;;;;10.65;7.32;;;;;19.10;100323.00;;;;2058509;28;20230;-55
2024/02/14 03:45:56;;;;;;;11.52;7.63;;;;;19.10;100324.00;;;;2068390;28;20284;-58
2024/02/14 03:46:56;;;;;;;14.03;7.87;;;;;19.10;100316.00;;;;2064891;28;20238;-56
2024/02/14 03:47:56;;;;;;;10.43;7.57;;;;;19.10;100323.00;;;;2066368;28;20797;-56
2024/02/14 03:48:57;;;;;;;10.43;7.90;;;;;19.10;100334.00;;;;2072479;28;20242;-58
2024/02/14 03:49:57;;;;;;;10.00;6.93;;;;;19.00;100334.00;;;;2059644;28;20218;-58
2024/02/14 03:50:57;;;;;;;11.07;7.50;;;;;19.00;100325.00;;;;2062619;28;20222;-58
2024/02/14 03:51:58;;;;;;;11.67;7.63;;;;;19.00;100334.00;;;;2069739;28;20678;-57
2024/02/14 03:52:58;;;;;;;9.63;6.87;;;;;19.00;100320.00;;;;2070687;28;20724;-59
2024/02/14 03:53:58;;;;;;;10.67;7.53;;;;;19.00;100331.00;;;;2071486;28;20689;-55
2024/02/14 03:54:59;;;;;;;12.70;8.30;;;;;19.00;100338.00;;;;2060314;28;20697;-56
2024/02/14 03:56:00;;;;;;;9.80;6.70;;;;;19.00;100320.00;;;;2068376;28;20655;-56
2024/02/14 03:57:00;;;;;;;10.97;7.53;;;;;19.00;100310.00;;;;2061808;28;20223;-55
2024/02/14 03:58:01;;;;;;;11.40;7.93;;;;;19.10;100321.00;;;;2070033;28;20503;-56
2024/02/14 03:59:02;;;;;;;9.33;6.90;;;;;19.10;100318.00;;;;2068595;28;20218;-58
2024/02/14 04:00:03;;;;;;;9.18;6.50;;;;;19.00;100319.00;;;;2060662;28;20858;-55
2024/02/14 04:01:04;;;;;;;8.30;6.23;;;;;19.00;100323.00;;;;2069451;28;20218;-58
2024/02/14 04:02:06;;;;;;;9.50;6.63;;;;;19.10;100324.00;;;;2070254;28;20453;-59
2024/02/14 04:03:07;;;;;;;9.73;6.70;;;;;19.10;100320.00;;;;2069687;28;20214;-58
2024/02/14 04:04:07;;;;;;;10.40;7.03;;;;;19.00;100326.00;;;;2070191;28;20321;-56
2024/02/14 04:05:08;;;;;;;9.00;6.60;;;;;19.00;100335.00;;;;2060672;28;20271;-57
2024/02/14 04:06:08;;;;;;;8.90;6.23;;;;;19.10;100331.00;;;;2069051;28;20218;-58
2024/02/14 04:07:09;;;;;;;9.33;7.07;;;;;19.10;100341.00;;;;2068944;28;20374;-58
2024/02/14 04:08:09;;;;;;;10.30;7.17;;;;;19.10;100343.00;;;;2069393;28;20287;-54
2024/02/14 04:09:10;;;;;;;10.23;6.60;;;;;19.00;100341.00;;;;2069950;28;20979;-58
2024/02/14 04:10:10;;;;;;;10.37;6.70;;;;;19.00;100334.00;;;;2065066;28;20239;-56
2024/02/14 04:11:13;;;;;;;8.63;6.50;;;;;19.00;100323.00;;;;2076756;28;22703;-61
2024/02/14 04:12:13;;;;;;;10.10;6.95;;;;;19.00;100324.00;;;;2072354;28;20214;-54
2024/02/14 04:13:14;;;;;;;11.37;7.17;;;;;19.00;100335.00;;;;2071348;28;20782;-57
2024/02/14 04:14:14;;;;;;;11.10;6.97;;;;;19.00;100332.00;;;;2075728;28;20209;-57
2024/02/14 04:15:15;;;;;;;9.67;6.60;;;;;19.00;100343.00;;;;2059699;28;20220;-57
2024/02/14 04:16:19;;;;;;;10.20;6.57;;;;;19.00;100340.00;;;;2069839;28;20763;-58
2024/02/14 04:17:19;;;;;;;7.00;5.45;;;;;19.00;100338.00;;;;2068132;28;20222;-57
2024/02/14 04:18:19;;;;;;;10.87;7.17;;;;;19.00;100336.00;;;;2070270;28;20214;-57
2024/02/14 04:19:20;;;;;;;9.60;6.83;;;;;19.00;100334.00;;;;2069923;28;20208;-55
2024/02/14 04:20:20;;;;;;;7.60;5.93;;;;;19.00;100336.00;;;;2059665;28;20229;-57
2024/02/14 04:21:20;;;;;;;9.87;6.90;;;;;19.00;100343.00;;;;2070226;28;20297;-54
2024/02/14 04:22:21;;;;;;;9.13;7.07;;;;;19.00;100335.00;;;;2069403;28;20206;-56
2024/02/14 04:23:22;;;;;;;9.23;6.50;;;;;19.00;100335.00;;;;2070049;28;20296;-57
2024/02/14 04:24:22;;;;;;;9.73;6.55;;;;;19.00;100344.00;;;;2068454;28;20748;-56
2024/02/14 04:25:23;;;;;;;10.17;6.47;;;;;19.00;100341.00;;;;2060126;28;20241;-57
2024/02/14 04:26:23;;;;;;;8.60;5.90;;;;;19.00;100343.00;;;;2069794;28;20255;-58
2024/02/14 04:27:23;;;;;;;9.17;6.87;;;;;19.00;100348.00;;;;2066911;28;20203;-58
2024/02/14 04:28:23;;;;;;;9.93;6.47;;;;;19.00;100348.00;;;;2070024;28;20237;-59
2024/02/14 04:29:24;;;;;;;8.80;6.03;;;;;19.00;100344.00;;;;2069466;28;20207;-56
2024/02/14 04:30:24;;;;;;;8.47;6.00;;;;;19.00;100353.00;;;;2056635;28;20210;-55
2024/02/14 04:31:26;;;;;;;8.03;5.80;;;;;19.00;100349.00;;;;2065194;28;20213;-57
2024/02/14 04:32:27;;;;;;;8.95;6.03;;;;;19.00;100352.00;;;;2069167;28;20352;-55
2024/02/14 04:33:27;;;;;;;7.20;5.57;;;;;19.00;100349.00;;;;2073884;28;20206;-56
2024/02/14 04:34:27;;;;;;;8.23;5.60;;;;;19.00;100348.00;;;;2071677;28;20279;-58
2024/02/14 04:35:28;;;;;;;7.80;6.00;;;;;19.00;100354.00;;;;2059781;28;20619;-59
2024/02/14 04:36:29;;;;;;;8.50;5.87;;;;;19.00;100353.00;;;;2068853;28;20213;-59
2024/02/14 04:37:30;;;;;;;7.72;5.78;;;;;19.00;100349.00;;;;2068869;28;20960;-58
2024/02/14 04:38:30;;;;;;;7.60;5.73;;;;;19.00;100354.00;;;;2069765;28;22439;-57
2024/02/14 04:39:30;;;;;;;8.60;5.77;;;;;19.00;100358.00;;;;2068727;28;20221;-59
2024/02/14 04:40:31;;;;;;;8.40;5.70;;;;;19.00;100360.00;;;;2060550;28;20226;-55
2024/02/14 04:41:31;;;;;;;9.80;6.10;;;;;19.00;100355.00;;;;2067998;28;20260;-54
2024/02/14 04:42:32;;;;;;;8.03;5.50;;;;;19.00;100356.00;;;;2069917;28;20222;-56
2024/02/14 04:43:32;;;;;;;7.30;5.60;;;;;19.00;100347.00;;;;2069051;28;20280;-59
2024/02/14 04:44:33;;;;;;;8.10;5.23;;;;;19.00;100357.00;;;;2060146;28;20457;-59
2024/02/14 04:45:34;;;;;;;7.80;5.10;;;;;19.00;100354.00;;;;2068681;28;20218;-55
2024/02/14 04:46:35;;;;;;;8.35;6.07;;;;;19.00;100347.00;;;;2067058;28;20297;-58
2024/02/14 04:47:36;;;;;;;7.80;5.40;;;;;19.00;100354.00;;;;2068140;28;20218;-57
2024/02/14 04:48:39;;;;;;;8.63;5.70;;;;;18.90;100361.00;;;;2069247;28;20214;-58
2024/02/14 04:49:39;;;;;;;8.18;5.70;;;;;18.90;100366.00;;;;2060992;28;20237;-54
2024/02/14 04:50:40;;;;;;;8.90;5.33;;;;;19.00;100359.00;;;;2077097;28;21271;-55
2024/02/14 04:51:40;;;;;;;8.13;5.73;;;;;19.00;100354.00;;;;2076442;28;20321;-58
2024/02/14 04:52:41;;;;;;;7.53;4.90;;;;;19.00;100352.00;;;;2069876;28;20323;-56
2024/02/14 04:53:41;;;;;;;6.70;4.80;;;;;19.00;100216.00;;;;2074658;28;20752;-58
2024/02/14 04:54:41;;;;;;;7.67;5.30;;;;;19.00;100360.00;;;;2056360;28;20215;-57
2024/02/14 04:55:42;;;;;;;9.30;5.37;;;;;18.90;100368.00;;;;2066441;28;20700;-54